Time;durP1;ratioP1;P1;durP2;ratioP2;P2;SDS_P1;SDS_P2;PMS_P1;PMS_P2;Temp;Humidity;BMP_temperature;BMP_pressure;BME280_temperature;BME280_humidity;BME280_pressure;Samples;Min_cycle;Max_cycle;Signal;HPM_P1;HPM_P2
2023/09/17 00:02:26;;;;;;;12.60;11.07;;;;;;;16.38;74.06;100883.41;7398433;19;20463;-67
2023/09/17 00:04:55;;;;;;;16.67;10.32;;;;;;;16.36;74.00;100885.25;7399855;19;20022;-67
2023/09/17 00:07:23;;;;;;;11.48;10.38;;;;;;;16.34;74.00;100881.81;7402285;19;20028;-68
2023/09/17 00:09:54;;;;;;;12.32;10.23;;;;;;;16.30;74.09;100882.84;7402631;19;20018;-68
2023/09/17 00:12:23;;;;;;;10.93;9.82;;;;;;;16.29;74.07;100892.59;7400190;19;20015;-68
2023/09/17 00:14:52;;;;;;;12.82;10.10;;;;;;;16.27;74.08;100883.84;7399527;19;20028;-67
2023/09/17 00:17:20;;;;;;;12.52;11.30;;;;;;;16.25;74.56;100884.84;7402022;19;20510;-68
2023/09/17 00:19:49;;;;;;;13.18;11.65;;;;;;;16.21;74.31;100884.13;7402382;19;20018;-68
2023/09/17 00:22:17;;;;;;;11.55;9.68;;;;;;;16.16;74.54;100883.44;7402193;19;20018;-68
2023/09/17 00:24:46;;;;;;;16.38;10.27;;;;;;;16.12;74.55;100890.69;7398881;19;20028;-67
2023/09/17 00:27:17;;;;;;;10.00;8.95;;;;;;;16.07;74.82;100892.66;7402443;19;20018;-68
2023/09/17 00:29:45;;;;;;;10.23;9.25;;;;;;;16.02;74.46;100897.28;7402403;19;20014;-67
2023/09/17 00:32:14;;;;;;;11.98;9.73;;;;;;;15.97;74.79;100891.31;7398987;19;20014;-67
2023/09/17 00:34:42;;;;;;;10.55;9.38;;;;;;;15.94;74.90;100894.97;7398824;19;20493;-67
2023/09/17 00:37:11;;;;;;;13.05;9.65;;;;;;;15.90;74.52;100889.88;7402126;19;20023;-67
2023/09/17 00:39:40;;;;;;;11.00;9.45;;;;;;;15.85;75.00;100895.34;7401744;19;20015;-68
2023/09/17 00:42:09;;;;;;;11.13;10.07;;;;;;;15.78;74.98;100894.72;7398817;19;20015;-68
2023/09/17 00:44:40;;;;;;;11.15;10.07;;;;;;;15.75;75.14;100899.28;7399012;19;20014;-68
2023/09/17 00:47:10;;;;;;;11.40;10.02;;;;;;;15.71;75.25;100895.88;7399145;19;20027;-68
2023/09/17 00:49:39;;;;;;;11.38;9.98;;;;;;;15.67;75.52;100899.59;7401441;19;20022;-67
2023/09/17 00:52:17;;;;;;;11.65;10.40;;;;;;;15.63;75.29;100893.56;7399236;19;20019;-68
2023/09/17 00:54:47;;;;;;;13.30;10.85;;;;;;;15.60;75.71;100892.81;7398689;19;20007;-68
2023/09/17 00:57:16;;;;;;;10.95;9.75;;;;;;;15.56;75.67;100893.88;7398309;19;20015;-68
2023/09/17 00:59:48;;;;;;;12.07;10.77;;;;;;;15.53;75.84;100891.34;7400621;19;20015;-68
2023/09/17 01:02:18;;;;;;;10.75;9.68;;;;;;;15.48;76.05;100889.75;7398815;19;20014;-68
2023/09/17 01:04:49;;;;;;;13.00;9.90;;;;;;;15.45;76.05;100892.50;7397932;19;20504;-68
2023/09/17 01:07:18;;;;;;;12.77;10.20;;;;;;;15.41;76.27;100890.06;7398559;19;20030;-68
2023/09/17 01:09:47;;;;;;;12.32;10.02;;;;;;;15.37;76.22;100884.03;7400794;19;20014;-68
2023/09/17 01:12:17;;;;;;;11.40;10.20;;;;;;;15.31;76.40;100881.63;7398584;19;20018;-69
2023/09/17 01:14:48;;;;;;;14.10;10.95;;;;;;;15.26;76.60;100884.44;7395933;19;20524;-68
2023/09/17 01:17:17;;;;;;;11.82;10.63;;;;;;;15.23;76.79;100889.84;7400606;19;20035;-68
2023/09/17 01:19:45;;;;;;;12.13;10.80;;;;;;;15.19;76.85;100882.97;7397877;19;20027;-68
2023/09/17 01:22:21;;;;;;;11.77;10.57;;;;;;;15.14;77.14;100885.78;7399735;19;20021;-68
2023/09/17 01:24:57;;;;;;;11.52;10.32;;;;;;;15.13;77.14;100886.69;7397271;19;20022;-68
2023/09/17 01:27:29;;;;;;;15.27;11.45;;;;;;;15.12;77.08;100886.75;7397762;19;20011;-68
2023/09/17 01:29:58;;;;;;;10.95;9.80;;;;;;;15.09;77.19;100898.31;7400490;19;20018;-68
2023/09/17 01:32:26;;;;;;;13.95;11.20;;;;;;;15.09;77.32;100894.78;7397847;19;20011;-68
2023/09/17 01:34:56;;;;;;;13.65;12.25;;;;;;;15.06;77.38;100890.47;7397186;19;20015;-68
2023/09/17 01:37:39;;;;;;;14.23;12.73;;;;;;;15.05;77.78;100893.19;7399364;19;20509;-67
2023/09/17 01:40:13;;;;;;;13.73;12.03;;;;;;;15.05;77.84;100890.53;7400249;19;20077;-68
2023/09/17 01:42:47;;;;;;;13.18;11.77;;;;;;;15.03;77.45;100887.97;7399016;19;20532;-67
2023/09/17 01:45:16;;;;;;;13.95;12.32;;;;;;;15.03;77.75;100897.69;7397477;19;20015;-67
2023/09/17 01:47:46;;;;;;;12.63;11.40;;;;;;;15.02;77.74;100895.97;7398971;19;20347;-68
2023/09/17 01:50:15;;;;;;;17.17;14.00;;;;;;;15.01;77.75;100889.78;7399028;19;20405;-68
2023/09/17 01:52:44;;;;;;;13.95;12.32;;;;;;;14.99;77.64;100887.22;7397076;19;20015;-68
2023/09/17 01:55:13;;;;;;;14.57;13.05;;;;;;;14.99;78.00;100894.28;7398840;19;20485;-68
2023/09/17 01:57:44;;;;;;;16.08;14.32;;;;;;;14.97;78.02;100889.06;7396883;19;20018;-68
2023/09/17 02:00:18;;;;;;;13.88;12.48;;;;;;;14.97;77.98;100894.38;7399458;19;20015;-68
2023/09/17 02:02:48;;;;;;;;;;;;;;;14.97;77.82;100888.19;7399818;19;20070;-68
2023/09/17 02:05:16;;;;;;;12.32;10.98;;;;;;;14.94;77.63;100888.31;7398865;19;19927;-68
2023/09/17 02:07:45;;;;;;;13.40;11.98;;;;;;;14.92;77.73;100880.44;7396575;19;20038;-68
2023/09/17 02:10:14;;;;;;;13.07;11.70;;;;;;;14.90;77.73;100886.69;7398665;19;20014;-68
2023/09/17 02:12:45;;;;;;;12.60;10.85;;;;;;;14.88;77.70;100883.28;7396685;19;20034;-68
2023/09/17 02:15:14;;;;;;;12.02;10.18;;;;;;;14.87;78.09;100890.31;7398973;19;20014;-68
2023/09/17 02:17:43;;;;;;;12.23;11.02;;;;;;;14.86;78.05;100885.97;7397952;19;20477;-68
2023/09/17 02:20:13;;;;;;;13.85;12.27;;;;;;;14.83;78.09;100884.28;7398024;19;20382;-68
2023/09/17 02:22:42;;;;;;;13.88;11.48;;;;;;;14.82;78.18;100882.59;7397564;19;20021;-68
2023/09/17 02:25:11;;;;;;;11.27;10.07;;;;;;;14.79;78.40;100879.19;7397137;19;20015;-68
2023/09/17 02:27:50;;;;;;;10.50;9.45;;;;;;;14.76;78.38;100880.16;7398383;19;20481;-68
2023/09/17 02:30:18;;;;;;;11.30;10.18;;;;;;;14.74;78.15;100882.00;7398590;19;20033;-68
2023/09/17 02:32:46;;;;;;;12.07;10.02;;;;;;;14.72;78.15;100882.97;7395859;19;20011;-68
2023/09/17 02:35:15;;;;;;;10.88;9.77;;;;;;;14.69;78.19;100886.59;7397880;19;20014;-68
2023/09/17 02:37:44;;;;;;;10.88;9.77;;;;;;;14.66;78.45;100884.91;7398084;19;20082;-68
2023/09/17 02:40:12;;;;;;;10.30;9.23;;;;;;;14.63;78.15;100884.13;7397147;19;20027;-68
2023/09/17 02:42:41;;;;;;;12.38;9.95;;;;;;;14.60;78.48;100886.91;7395412;19;20018;-68
2023/09/17 02:45:12;;;;;;;15.32;9.95;;;;;;;14.56;78.58;100894.06;7397192;19;20486;-68
2023/09/17 02:47:42;;;;;;;11.45;10.25;;;;;;;14.54;78.81;100880.03;7397799;19;20028;-68
2023/09/17 02:50:12;;;;;;;11.23;10.07;;;;;;;14.50;78.92;100883.72;7397856;19;20036;-68
2023/09/17 02:52:41;;;;;;;12.68;11.27;;;;;;;14.47;79.13;100883.84;7395813;19;20014;-68
2023/09/17 02:55:10;;;;;;;10.85;9.60;;;;;;;14.45;79.02;100881.25;7396881;19;20032;-67
2023/09/17 02:57:39;;;;;;;11.80;10.52;;;;;;;14.42;79.17;100876.09;7397115;19;20034;-67
2023/09/17 03:00:10;;;;;;;11.73;10.48;;;;;;;14.41;79.31;100876.16;7395249;19;20011;-67
2023/09/17 03:02:50;;;;;;;12.60;10.15;;;;;;;14.40;79.52;100883.19;7396905;19;20011;-67
2023/09/17 03:05:20;;;;;;;11.60;10.50;;;;;;;14.37;79.66;100885.06;7397320;19;20010;-68
2023/09/17 03:07:49;;;;;;;11.90;10.68;;;;;;;14.33;79.86;100892.22;7395028;19;20018;-68
2023/09/17 03:10:20;;;;;;;12.27;10.90;;;;;;;14.29;80.02;100886.22;7394400;19;20011;-68
2023/09/17 03:12:49;;;;;;;12.07;10.88;;;;;;;14.25;80.15;100884.56;7395713;19;20074;-68
2023/09/17 03:15:18;;;;;;;11.20;10.10;;;;;;;14.24;80.41;100884.63;7396585;19;20018;-68
2023/09/17 03:17:49;;;;;;;12.38;10.50;;;;;;;14.20;80.63;100886.50;7396024;19;20379;-68
2023/09/17 03:20:22;;;;;;;11.82;10.63;;;;;;;14.16;80.68;100884.91;7397092;19;20015;-68
2023/09/17 03:22:51;;;;;;;12.45;10.85;;;;;;;14.14;81.01;100890.25;7395749;19;20395;-67
2023/09/17 03:25:20;;;;;;;10.45;9.20;;;;;;;14.11;81.08;100890.34;7394923;19;20018;-68
2023/09/17 03:27:48;;;;;;;12.10;10.85;;;;;;;14.09;81.21;100892.19;7396160;19;20034;-68
2023/09/17 03:30:16;;;;;;;11.77;10.57;;;;;;;14.08;81.21;100894.84;7395697;19;20477;-68
2023/09/17 03:32:45;;;;;;;11.68;10.48;;;;;;;14.05;81.29;100897.59;7394806;19;20023;-68
2023/09/17 03:35:16;;;;;;;11.93;10.73;;;;;;;14.04;81.52;100903.78;7395936;19;20015;-68
2023/09/17 03:37:45;;;;;;;14.98;11.00;;;;;;;14.01;81.50;100903.00;7394348;19;20028;-68
2023/09/17 03:40:15;;;;;;;12.70;10.63;;;;;;;13.97;81.74;100901.34;7395296;19;20494;-67
2023/09/17 03:42:46;;;;;;;17.27;10.93;;;;;;;13.96;81.75;100902.28;7394397;19;20035;-67
2023/09/17 03:45:16;;;;;;;12.90;10.80;;;;;;;13.94;82.11;100903.22;7395191;19;20489;-67
2023/09/17 03:47:47;;;;;;;12.93;11.60;;;;;;;13.91;82.30;100901.56;7393741;19;20018;-67
2023/09/17 03:50:19;;;;;;;12.95;10.70;;;;;;;13.90;82.31;100905.13;7394997;19;20482;-67
2023/09/17 03:52:50;;;;;;;12.27;11.00;;;;;;;13.89;82.33;100905.16;7393908;19;20108;-68
2023/09/17 03:55:18;;;;;;;12.50;11.30;;;;;;;13.89;82.46;100907.78;7395053;19;20478;-68
2023/09/17 03:57:47;;;;;;;12.70;11.40;;;;;;;13.88;82.36;100914.00;7394853;19;20481;-68
2023/09/17 04:00:17;;;;;;;14.10;11.52;;;;;;;13.85;82.62;100915.81;7394800;19;20023;-68
2023/09/17 04:02:47;;;;;;;15.63;11.02;;;;;;;13.83;82.86;100912.34;7392780;19;20366;-68
2023/09/17 04:05:21;;;;;;;14.20;11.50;;;;;;;13.80;82.70;100909.84;7394544;19;20031;-68
2023/09/17 04:07:49;;;;;;;;;;;;;;;13.79;83.05;100913.38;7395173;19;20011;-68
2023/09/17 04:10:19;;;;;;;13.35;11.80;;;;;;;13.77;82.74;100915.19;7394165;19;20339;-68
2023/09/17 04:12:48;;;;;;;13.32;11.18;;;;;;;13.76;83.15;100910.84;7393173;19;20006;-68
2023/09/17 04:15:20;;;;;;;12.73;11.48;;;;;;;13.76;82.94;100908.22;7394553;19;20025;-68
2023/09/17 04:17:50;;;;;;;11.60;10.50;;;;;;;13.75;83.26;100914.41;7394400;19;20070;-69
2023/09/17 04:20:22;;;;;;;13.70;12.27;;;;;;;13.75;83.20;100909.13;7394669;19;20422;-68
2023/09/17 04:22:52;;;;;;;14.65;11.55;;;;;;;13.76;83.20;100910.84;7392346;19;20015;-68
2023/09/17 04:25:21;;;;;;;13.65;12.23;;;;;;;13.75;83.35;100909.13;7393390;19;20018;-67
2023/09/17 04:27:51;;;;;;;13.95;11.63;;;;;;;13.75;83.45;100909.13;7394314;19;20104;-68
2023/09/17 04:30:20;;;;;;;12.45;11.25;;;;;;;13.75;83.39;100903.84;7394482;19;20078;-69
2023/09/17 04:32:49;;;;;;;12.68;11.38;;;;;;;13.75;83.43;100911.75;7392992;19;20545;-69
2023/09/17 04:35:21;;;;;;;12.57;11.10;;;;;;;13.75;83.65;100913.50;7393881;19;20015;-68
2023/09/17 04:37:51;;;;;;;13.43;11.80;;;;;;;13.74;83.50;100910.03;7394647;19;20014;-68
2023/09/17 04:40:24;;;;;;;12.50;11.30;;;;;;;13.75;83.70;100916.16;7393813;19;20406;-68
2023/09/17 04:42:53;;;;;;;12.38;11.18;;;;;;;13.74;83.87;100912.66;7393364;19;20021;-68
2023/09/17 04:45:35;;;;;;;12.95;11.55;;;;;;;13.73;83.83;100921.47;7393978;19;20044;-68
2023/09/17 04:48:04;;;;;;;14.15;12.45;;;;;;;13.72;83.74;100922.38;7394102;19;20022;-68
2023/09/17 04:50:35;;;;;;;13.30;11.95;;;;;;;13.72;83.85;100921.53;7400708;19;20024;-68
2023/09/17 04:53:04;;;;;;;12.98;11.60;;;;;;;13.71;83.84;100915.41;7398330;19;20573;-68
2023/09/17 04:55:33;;;;;;;14.13;12.68;;;;;;;13.71;83.91;100917.16;7400875;19;20014;-68
2023/09/17 04:58:02;;;;;;;18.45;12.38;;;;;;;13.70;84.01;100913.69;7401570;19;20014;-68
2023/09/17 05:00:30;;;;;;;115.80;71.80;;;;;;;13.69;83.90;100911.94;7401072;19;20022;-67
2023/09/17 05:02:59;;;;;;;56.25;36.20;;;;;;;13.71;84.03;100912.78;7400343;19;20018;-68
2023/09/17 05:05:27;;;;;;;31.55;22.67;;;;;;;13.71;84.13;100920.69;7400525;19;20501;-68
2023/09/17 05:07:58;;;;;;;15.23;13.05;;;;;;;13.71;84.31;100931.25;7400585;19;20038;-69
2023/09/17 05:10:27;;;;;;;14.32;12.52;;;;;;;13.70;84.18;100934.78;7400747;19;20019;-69
2023/09/17 05:12:56;;;;;;;14.50;11.90;;;;;;;13.70;84.34;100934.78;7397339;19;20494;-68
2023/09/17 05:15:25;;;;;;;12.25;11.10;;;;;;;13.69;84.08;100935.69;7397630;19;20013;-68
2023/09/17 05:17:53;;;;;;;13.20;11.52;;;;;;;13.68;84.05;100939.22;7400027;19;20502;-68
2023/09/17 05:20:23;;;;;;;13.55;11.32;;;;;;;13.68;84.05;100939.22;7400524;19;20014;-69
2023/09/17 05:22:52;;;;;;;13.95;11.43;;;;;;;13.66;83.92;100939.28;7399899;19;20019;-68
2023/09/17 05:25:23;;;;;;;14.63;12.25;;;;;;;13.66;84.24;100946.31;7399452;19;20019;-68
2023/09/17 05:27:52;;;;;;;12.35;11.05;;;;;;;13.65;84.28;100953.38;7397686;19;20014;-68
2023/09/17 05:30:20;;;;;;;12.75;11.45;;;;;;;13.65;84.11;100958.63;7400137;19;20011;-69
2023/09/17 05:32:49;;;;;;;13.52;11.43;;;;;;;13.65;84.28;100961.28;7397005;19;20110;-67
2023/09/17 05:35:17;;;;;;;16.17;12.27;;;;;;;13.65;84.10;100958.63;7397277;19;20027;-68
2023/09/17 05:37:46;;;;;;;14.15;11.57;;;;;;;13.65;84.18;100963.06;7399768;19;20035;-69
2023/09/17 05:40:14;;;;;;;13.57;12.25;;;;;;;13.63;84.21;100963.09;7399710;19;20028;-68
2023/09/17 05:42:46;;;;;;;13.23;11.65;;;;;;;13.64;84.34;100974.50;7398950;19;20380;-69
2023/09/17 05:45:14;;;;;;;13.50;12.02;;;;;;;13.64;84.63;100971.88;7399945;19;20031;-68
2023/09/17 05:47:42;;;;;;;14.40;12.68;;;;;;;13.65;84.64;100969.19;7399756;19;20416;-67
2023/09/17 05:50:12;;;;;;;13.27;11.48;;;;;;;13.67;84.79;100977.03;7399162;19;20021;-67
2023/09/17 05:52:41;;;;;;;13.35;11.95;;;;;;;13.67;84.76;100977.94;7398526;19;20019;-67
2023/09/17 05:55:10;;;;;;;13.93;12.43;;;;;;;13.67;84.63;100977.94;7399251;19;20018;-67
2023/09/17 05:57:38;;;;;;;16.42;11.77;;;;;;;13.69;84.77;100983.13;7398580;19;20020;-67
2023/09/17 06:00:11;;;;;;;14.05;12.55;;;;;;;13.71;85.07;100986.59;7395959;19;20032;-67
2023/09/17 06:02:39;;;;;;;14.45;12.98;;;;;;;13.74;84.79;100994.41;7399050;19;20006;-66
2023/09/17 06:05:29;;;;;;;14.95;12.73;;;;;;;13.77;84.82;100989.03;7398297;19;20508;-66
2023/09/17 06:07:58;;;;;;;13.25;11.82;;;;;;;13.82;84.96;100997.66;7398267;19;20481;-68
2023/09/17 06:10:27;;;;;;;14.70;12.75;;;;;;;13.85;85.07;100997.56;7398625;19;20027;-67
2023/09/17 06:12:55;;;;;;;13.80;12.40;;;;;;;13.91;85.04;101000.94;7396333;19;20018;-67
2023/09/17 06:15:26;;;;;;;16.20;13.05;;;;;;;13.97;84.81;101006.00;7396477;19;20023;-67
2023/09/17 06:17:55;;;;;;;14.43;12.93;;;;;;;14.02;84.87;101004.09;7398964;19;20018;-67
2023/09/17 06:20:23;;;;;;;14.60;12.95;;;;;;;14.06;85.13;101005.72;7398186;19;20513;-67
2023/09/17 06:22:51;;;;;;;14.60;12.73;;;;;;;14.11;84.83;101001.13;7397505;19;20070;-66
2023/09/17 06:25:32;;;;;;;15.45;11.98;;;;;;;14.18;84.75;101004.47;7396958;19;20036;-69
2023/09/17 06:28:01;;;;;;;13.48;11.93;;;;;;;14.24;84.70;101003.38;7397750;19;20066;-67
2023/09/17 06:30:32;;;;;;;13.68;12.32;;;;;;;14.28;84.52;101000.59;7396042;19;20031;-68
2023/09/17 06:33:07;;;;;;;12.75;11.55;;;;;;;14.36;84.56;101000.34;7396778;19;20034;-67
2023/09/17 06:35:36;;;;;;;13.43;12.00;;;;;;;14.41;84.54;101001.06;7397864;19;20070;-66
2023/09/17 06:38:04;;;;;;;14.35;12.90;;;;;;;14.48;84.07;101006.97;7395658;19;20014;-67
2023/09/17 06:40:33;;;;;;;13.02;11.45;;;;;;;14.56;84.19;101009.34;7397449;19;20018;-67
2023/09/17 06:43:01;;;;;;;12.93;11.57;;;;;;;14.62;84.20;101002.09;7396659;19;20027;-67
2023/09/17 06:45:33;;;;;;;13.00;11.38;;;;;;;14.68;84.00;100993.13;7397315;19;20010;-67
2023/09/17 06:48:01;;;;;;;12.25;11.05;;;;;;;14.75;83.75;100999.06;7397074;19;20477;-67
2023/09/17 06:50:30;;;;;;;14.20;12.60;;;;;;;14.81;83.46;101005.00;7396650;19;20513;-67
2023/09/17 06:52:58;;;;;;;13.20;11.30;;;;;;;14.89;83.32;101002.06;7394975;19;20043;-67
2023/09/17 06:55:27;;;;;;;12.32;11.13;;;;;;;14.97;83.01;101005.31;7394787;19;20485;-67
2023/09/17 06:57:55;;;;;;;12.10;10.80;;;;;;;15.05;83.25;101005.03;7396943;19;20015;-69
2023/09/17 07:00:24;;;;;;;12.85;10.98;;;;;;;15.13;83.02;100997.69;7396982;19;20022;-69
2023/09/17 07:02:55;;;;;;;14.18;11.65;;;;;;;15.23;82.63;101007.94;7394238;19;20508;-67
2023/09/17 07:05:24;;;;;;;15.45;12.25;;;;;;;15.31;82.84;100997.91;7396401;19;20010;-67
2023/09/17 07:07:53;;;;;;;11.52;10.30;;;;;;;15.36;82.70;100993.31;7396506;19;20069;-68
2023/09/17 07:10:21;;;;;;;12.07;10.77;;;;;;;15.51;82.67;101004.25;7394614;19;20023;-68
2023/09/17 07:12:50;;;;;;;11.77;10.57;;;;;;;15.60;82.66;101007.38;7393737;19;20478;-68
2023/09/17 07:15:20;;;;;;;12.45;10.93;;;;;;;15.71;82.07;101003.44;7396321;19;20015;-68
2023/09/17 07:17:48;;;;;;;12.18;10.93;;;;;;;15.80;82.11;101003.97;7396348;19;20018;-68
2023/09/17 07:20:19;;;;;;;11.52;10.35;;;;;;;15.93;81.74;101006.16;7396150;19;20017;-69
2023/09/17 07:22:49;;;;;;;11.55;9.43;;;;;;;16.04;81.82;101000.44;7396382;19;20423;-69
2023/09/17 07:25:18;;;;;;;11.20;10.05;;;;;;;16.15;81.46;101000.00;7396034;19;20478;-68
2023/09/17 07:27:46;;;;;;;11.27;9.52;;;;;;;16.24;81.42;101000.47;7394932;19;20023;-69
2023/09/17 07:30:16;;;;;;;10.52;9.52;;;;;;;16.35;80.85;101013.28;7395382;19;20512;-69
2023/09/17 07:32:44;;;;;;;10.00;9.00;;;;;;;16.46;80.89;101004.88;7395173;19;20017;-69
2023/09/17 07:35:13;;;;;;;10.13;9.13;;;;;;;16.57;80.75;101015.88;7395759;19;20018;-67
2023/09/17 07:37:44;;;;;;;10.05;8.90;;;;;;;16.66;80.46;101011.97;7395737;19;20018;-68
2023/09/17 07:40:13;;;;;;;10.52;9.30;;;;;;;16.76;80.48;101007.13;7395411;19;20007;-69
2023/09/17 07:42:42;;;;;;;10.27;8.82;;;;;;;16.86;80.16;101007.59;7394900;19;20023;-69
2023/09/17 07:45:12;;;;;;;9.95;8.02;;;;;;;16.95;79.76;101009.88;7395426;19;20028;-69
2023/09/17 07:47:41;;;;;;;10.23;8.65;;;;;;;17.05;79.65;101003.22;7394635;19;20038;-68
2023/09/17 07:50:10;;;;;;;9.80;8.05;;;;;;;17.17;79.64;101011.56;7395243;19;20097;-70
2023/09/17 07:52:38;;;;;;;9.85;8.35;;;;;;;17.25;79.31;101015.59;7394476;19;20023;-68
2023/09/17 07:55:11;;;;;;;9.10;7.70;;;;;;;17.38;78.86;101010.56;7393464;19;20023;-69
2023/09/17 07:57:39;;;;;;;7.90;7.10;;;;;;;17.51;78.85;101015.31;7394795;19;20517;-70
2023/09/17 08:00:09;;;;;;;12.60;8.13;;;;;;;17.63;78.23;101009.44;7393316;19;20082;-68
2023/09/17 08:02:38;;;;;;;7.60;6.80;;;;;;;17.74;77.79;101011.56;7393444;19;20018;-71
2023/09/17 08:05:07;;;;;;;7.82;7.07;;;;;;;17.87;77.86;101022.50;7394557;19;20014;-69
2023/09/17 08:07:35;;;;;;;9.05;7.18;;;;;;;17.97;77.54;101018.47;7394569;19;20020;-68
2023/09/17 08:10:04;;;;;;;8.32;7.47;;;;;;;18.07;77.32;101011.78;7394188;19;20077;-69
2023/09/17 08:12:35;;;;;;;7.18;6.47;;;;;;;18.19;76.68;101009.47;7393962;19;20077;-69
2023/09/17 08:15:03;;;;;;;6.75;6.13;;;;;;;18.31;75.94;101011.50;7392870;19;20027;-68
2023/09/17 08:17:32;;;;;;;7.03;6.18;;;;;;;18.47;75.60;101016.03;7394125;19;20029;-69
2023/09/17 08:20:00;;;;;;;7.65;6.65;;;;;;;18.60;75.07;101009.16;7392272;19;20035;-68
2023/09/17 08:22:29;;;;;;;12.07;8.35;;;;;;;18.76;74.36;101011.03;7394067;19;20021;-70
2023/09/17 08:24:57;;;;;;;18.50;13.23;;;;;;;18.89;74.16;101005.00;7398447;19;20018;-69
2023/09/17 08:27:26;;;;;;;9.55;7.50;;;;;;;19.02;73.78;101012.38;7398450;19;20035;-69
2023/09/17 08:29:58;;;;;;;6.50;5.90;;;;;;;19.14;73.58;101010.84;7401332;19;20033;-68
2023/09/17 08:32:27;;;;;;;8.50;7.05;;;;;;;19.24;72.92;101012.06;7401750;19;20014;-69
2023/09/17 08:34:55;;;;;;;6.93;6.15;;;;;;;19.34;72.75;101007.13;7398492;19;20015;-69
2023/09/17 08:37:24;;;;;;;6.28;5.57;;;;;;;19.44;71.82;101007.47;7401355;19;20097;-69
2023/09/17 08:39:53;;;;;;;6.55;5.10;;;;;;;19.53;71.43;101007.81;7400992;19;20489;-68
2023/09/17 08:42:22;;;;;;;6.78;5.78;;;;;;;19.62;70.93;101008.25;7401304;19;20007;-70
2023/09/17 08:44:52;;;;;;;10.85;6.38;;;;;;;19.73;70.77;101010.28;7399099;19;20025;-69
2023/09/17 08:47:23;;;;;;;5.90;5.30;;;;;;;19.81;70.63;101011.59;7398199;19;20019;-68
2023/09/17 08:49:51;;;;;;;6.35;5.20;;;;;;;19.90;69.78;101004.91;7401209;19;20086;-70
2023/09/17 08:52:23;;;;;;;6.15;5.40;;;;;;;19.97;69.93;101000.97;7400934;19;20493;-70
2023/09/17 08:54:52;;;;;;;7.50;6.70;;;;;;;20.05;69.30;101003.19;7397937;19;20010;-69
2023/09/17 08:57:24;;;;;;;7.40;6.70;;;;;;;20.15;68.67;101001.69;7400822;19;20010;-68
2023/09/17 09:00:07;;;;;;;6.40;5.53;;;;;;;20.28;68.63;101001.00;7400991;19;20086;-69
2023/09/17 09:02:45;;;;;;;6.85;6.20;;;;;;;20.37;68.26;101003.09;7400665;19;20021;-68
2023/09/17 09:05:15;;;;;;;6.32;5.72;;;;;;;20.46;68.12;101001.69;7400624;19;20038;-68
2023/09/17 09:07:44;;;;;;;8.38;5.53;;;;;;;20.53;67.61;101007.56;7399563;19;20017;-68
2023/09/17 09:10:16;;;;;;;6.20;5.60;;;;;;;20.60;67.54;101006.22;7400312;19;20100;-68
2023/09/17 09:12:45;;;;;;;11.65;7.20;;;;;;;20.67;67.16;101008.44;7399124;19;20011;-68
2023/09/17 09:15:14;;;;;;;11.13;6.80;;;;;;;20.78;67.18;101006.97;7397314;19;20381;-69
2023/09/17 09:17:45;;;;;;;10.93;8.38;;;;;;;20.89;67.31;101001.84;7399969;19;20014;-68
2023/09/17 09:20:14;;;;;;;9.73;6.50;;;;;;;20.97;67.05;101004.88;7399711;19;20126;-69
2023/09/17 09:22:45;;;;;;;13.95;7.07;;;;;;;21.06;66.51;101005.28;7399040;19;20486;-68
2023/09/17 09:25:16;;;;;;;9.43;7.38;;;;;;;21.12;65.79;100994.22;7399656;19;20007;-69
2023/09/17 09:27:45;;;;;;;6.40;5.78;;;;;;;21.20;65.64;100991.91;7397513;19;20034;-70
2023/09/17 09:30:16;;;;;;;11.85;5.97;;;;;;;21.29;65.27;100995.81;7399734;19;20023;-70
2023/09/17 09:32:48;;;;;;;9.88;6.28;;;;;;;21.38;64.55;100995.25;7398769;19;20351;-69
2023/09/17 09:35:16;;;;;;;10.20;6.45;;;;;;;21.45;64.27;100991.22;7396171;19;20010;-70
2023/09/17 09:37:45;;;;;;;8.35;6.93;;;;;;;21.53;63.76;100985.38;7398793;19;20006;-69
2023/09/17 09:40:16;;;;;;;10.63;6.32;;;;;;;21.60;63.09;100993.91;7399224;19;20011;-70
2023/09/17 09:42:46;;;;;;;11.13;6.90;;;;;;;21.71;63.60;100985.19;7398918;19;20023;-69
2023/09/17 09:45:16;;;;;;;6.65;5.30;;;;;;;21.80;62.71;100993.47;7397128;19;20014;-68
2023/09/17 09:47:53;;;;;;;6.20;5.60;;;;;;;21.92;62.79;100998.97;7398622;19;20010;-68
2023/09/17 09:50:25;;;;;;;15.50;6.85;;;;;;;22.01;62.78;100986.81;7399092;19;20015;-68
2023/09/17 09:52:54;;;;;;;10.00;6.82;;;;;;;22.09;62.39;100989.81;7397944;19;20027;-69
2023/09/17 09:55:27;;;;;;;9.57;5.53;;;;;;;22.17;61.45;100984.00;7397274;19;20079;-69
2023/09/17 09:57:56;;;;;;;6.20;5.38;;;;;;;22.23;61.08;100987.09;7396485;19;20010;-69
2023/09/17 10:00:32;;;;;;;4.80;4.40;;;;;;;22.33;60.68;100992.69;7398351;19;20078;-69
2023/09/17 10:03:04;;;;;;;7.88;4.82;;;;;;;22.41;60.22;100989.53;7397590;19;20015;-69
2023/09/17 10:05:37;;;;;;;6.10;5.07;;;;;;;22.48;60.13;100989.97;7396570;19;20109;-69
2023/09/17 10:08:06;;;;;;;5.40;4.90;;;;;;;22.55;59.65;100989.44;7397969;19;20018;-69
2023/09/17 10:10:35;;;;;;;7.45;5.47;;;;;;;22.62;59.35;100992.53;7396346;19;20032;-69
2023/09/17 10:13:06;;;;;;;7.80;5.45;;;;;;;22.65;58.85;100992.34;7397163;19;20038;-69
2023/09/17 10:15:36;;;;;;;5.50;4.68;;;;;;;22.69;58.66;100983.13;7397347;19;20026;-69
2023/09/17 10:18:12;;;;;;;5.10;4.60;;;;;;;22.72;58.65;100984.75;7398753;19;20018;-69
2023/09/17 10:20:41;;;;;;;4.85;4.32;;;;;;;22.76;58.61;100988.91;7398558;19;20034;-69
2023/09/17 10:23:11;;;;;;;5.15;4.75;;;;;;;22.81;58.29;100986.78;7397368;19;20015;-70
2023/09/17 10:25:42;;;;;;;5.22;4.60;;;;;;;22.87;58.61;100989.00;7397546;19;20378;-70
2023/09/17 10:28:13;;;;;;;6.70;5.00;;;;;;;22.93;57.99;100985.06;7395762;19;20042;-68
2023/09/17 10:30:48;;;;;;;5.65;5.07;;;;;;;23.00;57.41;100980.13;7395547;19;20075;-69
2023/09/17 10:33:21;;;;;;;6.40;4.82;;;;;;;23.13;57.42;100985.47;7397010;19;20328;-69
2023/09/17 10:35:51;;;;;;;5.32;4.82;;;;;;;23.22;56.90;100980.34;7396002;19;20571;-69
2023/09/17 10:38:22;;;;;;;5.32;4.65;;;;;;;23.33;56.33;100976.03;7395071;19;20378;-69
2023/09/17 10:40:52;;;;;;;5.13;4.10;;;;;;;23.44;55.77;100978.78;7397495;19;20082;-67
2023/09/17 10:43:23;;;;;;;4.75;4.35;;;;;;;23.57;55.09;100981.47;7395029;19;20011;-69
2023/09/17 10:45:54;;;;;;;5.18;4.68;;;;;;;23.68;54.78;100986.88;7393922;19;20010;-68
2023/09/17 10:48:28;;;;;;;5.07;4.15;;;;;;;23.80;54.47;100986.94;7393375;19;20478;-69
2023/09/17 10:50:57;;;;;;;6.18;4.20;;;;;;;23.89;53.57;100986.25;7394494;19;20014;-69
2023/09/17 10:53:27;;;;;;;7.68;4.75;;;;;;;23.99;53.63;100978.44;7395247;19;20031;-69
2023/09/17 10:56:03;;;;;;;5.32;4.50;;;;;;;24.07;53.03;100973.31;7395830;19;20084;-69
2023/09/17 10:58:39;;;;;;;5.93;3.80;;;;;;;24.16;52.67;100975.34;7396063;19;20489;-69
2023/09/17 11:01:10;;;;;;;7.18;4.57;;;;;;;24.27;51.91;100982.53;7397816;19;20014;-69
2023/09/17 11:03:45;;;;;;;5.00;4.05;;;;;;;24.39;51.41;100981.63;7395748;19;20082;-69
2023/09/17 11:06:16;;;;;;;6.18;4.68;;;;;;;24.54;51.00;100987.63;7396722;19;20364;-69
2023/09/17 11:08:46;;;;;;;3.67;3.30;;;;;;;24.68;50.26;100985.72;7396401;19;20007;-70
2023/09/17 11:11:17;;;;;;;6.72;3.47;;;;;;;24.80;49.99;100983.94;7394772;19;20031;-69
2023/09/17 11:13:46;;;;;;;4.22;3.80;;;;;;;24.93;49.33;100981.97;7395778;19;20070;-69
2023/09/17 11:16:16;;;;;;;4.82;4.22;;;;;;;25.06;49.04;100987.25;7394106;19;20489;-69
2023/09/17 11:19:06;;;;;;;5.25;4.72;;;;;;;25.19;47.97;100985.28;7395538;19;20011;-69
2023/09/17 11:21:37;;;;;;;4.07;3.67;;;;;;;25.30;47.98;100984.41;7394738;19;20010;-69
2023/09/17 11:24:07;;;;;;;5.20;3.83;;;;;;;25.42;47.41;100979.91;7394511;19;20021;-69
2023/09/17 11:26:38;;;;;;;3.28;2.97;;;;;;;25.54;46.62;100983.44;7394504;19;20014;-69
2023/09/17 11:29:08;;;;;;;4.60;3.40;;;;;;;25.66;46.69;100986.94;7394914;19;20426;-69